createdAt,value
2023-01-10T00:00:59.227Z,98242.06
2023-01-10T00:04:03.236Z,98244.06
2023-01-10T00:07:06.202Z,98253.03
2023-01-10T00:10:09.817Z,98249.59
2023-01-10T00:13:23.699Z,98249.13
2023-01-10T00:16:26.529Z,98257.72
2023-01-10T00:19:31.192Z,98261.34
2023-01-10T00:22:33.736Z,98262.94
2023-01-10T00:25:36.935Z,98265.19
2023-01-10T00:28:39.679Z,98282.75
2023-01-10T00:31:42.216Z,98279.44
2023-01-10T00:34:46.728Z,98288.69
2023-01-10T00:37:49.293Z,98293.69
2023-01-10T00:40:51.911Z,98302.16
2023-01-10T00:43:59.630Z,98301.66
2023-01-10T00:47:02.327Z,98303.34
2023-01-10T00:50:08.532Z,98302.75
2023-01-10T00:53:11.917Z,98314.38
2023-01-10T00:56:14.538Z,98319.41
2023-01-10T00:59:17.173Z,98323.22
2023-01-10T01:02:19.907Z,98322.34
2023-01-10T01:05:24.386Z,98332.00
2023-01-10T01:08:27.396Z,98349.16
2023-01-10T01:11:29.912Z,98350.38
2023-01-10T01:14:32.613Z,98356.72
2023-01-10T01:17:35.462Z,98363.03
2023-01-10T01:20:39.977Z,98372.47
2023-01-10T01:23:42.589Z,98374.16
2023-01-10T01:26:45.722Z,98380.28
2023-01-10T01:29:48.452Z,98384.72
2023-01-10T01:32:51.283Z,98390.91
2023-01-10T01:35:55.143Z,98394.53
2023-01-10T01:38:57.621Z,98395.81
2023-01-10T01:42:00.495Z,98397.34
2023-01-10T01:45:48.992Z,98410.22
2023-01-10T01:48:51.816Z,98427.31
2023-01-10T01:52:00.174Z,98435.56
2023-01-10T01:55:04.494Z,98446.50
2023-01-10T01:58:16.961Z,98445.59
2023-01-10T02:01:20.349Z,98446.38
2023-01-10T02:04:25.452Z,98455.44
2023-01-10T02:07:30.743Z,98455.47
2023-01-10T02:10:38.810Z,98463.88
2023-01-10T02:13:42.718Z,98473.28
2023-01-10T02:16:45.684Z,98488.88
2023-01-10T02:19:52.685Z,98497.72
2023-01-10T02:23:26.257Z,98527.59
2023-01-10T02:26:47.791Z,98524.38
2023-01-10T02:30:25.595Z,98537.72
2023-01-10T02:33:31.540Z,98565.22
2023-01-10T02:36:40.366Z,98550.75
2023-01-10T02:39:50.417Z,98552.19
2023-01-10T02:42:57.490Z,98557.53
2023-01-10T02:46:03.429Z,98560.97
2023-01-10T02:49:07.783Z,98554.81
2023-01-10T02:52:10.708Z,98562.28
2023-01-10T02:55:13.334Z,98569.78
2023-01-10T02:58:24.707Z,98575.44
2023-01-10T03:01:32.808Z,98581.13
2023-01-10T03:04:45.607Z,98590.00
2023-01-10T03:07:54.426Z,98586.38
2023-01-10T03:10:59.920Z,98601.38
2023-01-10T03:14:03.574Z,98602.63
2023-01-10T03:17:08.892Z,98599.25
2023-01-10T03:20:13.796Z,98624.94
2023-01-10T03:23:17.599Z,98617.22
2023-01-10T03:26:26.607Z,98636.28
2023-01-10T03:29:32.655Z,98641.03
2023-01-10T03:32:35.491Z,98651.97
2023-01-10T03:35:45.382Z,98662.22
2023-01-10T03:38:52.819Z,98670.44
2023-01-10T03:42:02.574Z,98668.16
2023-01-10T03:45:07.356Z,98675.38
2023-01-10T03:48:12.423Z,98677.78
2023-01-10T03:51:17.055Z,98674.25
2023-01-10T03:54:19.726Z,98675.75
2023-01-10T03:57:24.164Z,98685.84
2023-01-10T04:00:27.049Z,98690.19
2023-01-10T04:03:29.762Z,98692.91
2023-01-10T04:06:33.864Z,98694.53
2023-01-10T04:09:36.436Z,98699.53
2023-01-10T04:12:39.274Z,98715.69
2023-01-10T04:15:42.053Z,98716.31
2023-01-10T04:18:44.842Z,98727.28
2023-01-10T04:21:48.854Z,98734.16
2023-01-10T04:24:52.166Z,98734.19
2023-01-10T04:27:55.019Z,98735.22
2023-01-10T04:30:57.590Z,98750.34
2023-01-10T04:34:00.170Z,98745.72
2023-01-10T04:37:04.180Z,98752.09
2023-01-10T04:40:08.202Z,98765.88
2023-01-10T04:43:10.876Z,98776.22
2023-01-10T04:46:13.466Z,98787.34
2023-01-10T04:49:16.923Z,98794.38
2023-01-10T04:52:21.228Z,98788.66
2023-01-10T04:55:23.845Z,98803.44
2023-01-10T04:58:27.158Z,98806.69
2023-01-10T05:01:29.939Z,98820.28
2023-01-10T05:04:32.856Z,98818.47
2023-01-10T05:07:37.580Z,98818.66
2023-01-10T05:10:40.168Z,98821.66
2023-01-10T05:13:43.386Z,98835.44
2023-01-10T05:16:46.022Z,98834.78
2023-01-10T05:19:48.723Z,98848.28
2023-01-10T05:22:52.738Z,98833.81
2023-01-10T05:25:55.468Z,98845.47
2023-01-10T05:28:58.016Z,98857.03
2023-01-10T05:32:00.920Z,98856.53
2023-01-10T05:35:03.541Z,98859.69
2023-01-10T05:38:07.486Z,98865.75
2023-01-10T05:41:10.151Z,98874.75
2023-01-10T05:44:14.737Z,98872.56
2023-01-10T05:47:17.442Z,98882.34
2023-01-10T05:50:20.025Z,98881.56
2023-01-10T05:53:24.352Z,98884.25
2023-01-10T05:56:27.262Z,98890.09
2023-01-10T05:59:29.944Z,98885.84
2023-01-10T06:02:32.879Z,98891.72
2023-01-10T06:05:35.586Z,98904.28
2023-01-10T06:08:40.740Z,98889.22
2023-01-10T06:11:43.393Z,98916.09
2023-01-10T06:14:46.082Z,98913.94
2023-01-10T06:17:49.757Z,98920.41
2023-01-10T06:20:52.954Z,98927.53
2023-01-10T06:23:57.764Z,98924.25
2023-01-10T06:27:00.294Z,98932.34
2023-01-10T06:30:02.833Z,98938.53
2023-01-10T06:33:07.411Z,98945.84
2023-01-10T06:36:10.675Z,98949.09
2023-01-10T06:39:14.761Z,98955.88
2023-01-10T06:42:17.839Z,98958.81
2023-01-10T06:45:20.573Z,98972.69
2023-01-10T06:48:23.503Z,98969.59
2023-01-10T06:51:26.324Z,98974.47
2023-01-10T06:54:30.369Z,98975.84
2023-01-10T06:57:35.347Z,98993.09
2023-01-10T07:00:38.293Z,99000.31
2023-01-10T07:03:41.394Z,99003.28
2023-01-10T07:06:44.028Z,99015.19
2023-01-10T07:09:48.304Z,99023.34
2023-01-10T07:12:51.230Z,99016.78
2023-01-10T07:15:54.092Z,99028.44
2023-01-10T07:18:56.770Z,99035.19
2023-01-10T07:21:59.379Z,99041.72
2023-01-10T07:25:03.396Z,99054.69
2023-01-10T07:28:06.114Z,99050.03
2023-01-10T07:31:08.720Z,99048.38
2023-01-10T07:34:11.658Z,99047.31
2023-01-10T07:37:14.285Z,99046.25
2023-01-10T07:40:18.977Z,99037.28
2023-01-10T07:43:21.628Z,99046.63
2023-01-10T07:46:24.168Z,99062.06
2023-01-10T07:49:27.244Z,99077.84
2023-01-10T07:52:30.085Z,99087.28
2023-01-10T07:55:36.336Z,99100.72
2023-01-10T07:58:38.947Z,99100.66
2023-01-10T08:01:41.752Z,99095.09
2023-01-10T08:04:50.992Z,99104.53
2023-01-10T08:07:55.215Z,99110.97
2023-01-10T08:11:00.348Z,99111.88
2023-01-10T08:14:03.038Z,99113.31
2023-01-10T08:17:05.623Z,99107.13
2023-01-10T08:20:09.769Z,99117.66
2023-01-10T08:23:12.457Z,99117.22
2023-01-10T08:26:16.363Z,99125.41
2023-01-10T08:29:19.240Z,99135.75
2023-01-10T08:32:22.431Z,99139.88
2023-01-10T08:35:25.020Z,99146.63
2023-01-10T08:38:27.590Z,99154.41
2023-01-10T08:41:31.495Z,99162.41
2023-01-10T08:44:34.105Z,99151.38
2023-01-10T08:47:36.684Z,99146.75
2023-01-10T08:50:39.382Z,99157.63
2023-01-10T08:53:41.966Z,99163.47
2023-01-10T08:56:47.372Z,99156.88
2023-01-10T08:59:50.070Z,99159.84
2023-01-10T09:02:52.787Z,99176.72
2023-01-10T09:05:55.609Z,99175.56
2023-01-10T09:08:58.673Z,99182.56
2023-01-10T09:12:22.595Z,99187.91
2023-01-10T09:15:27.079Z,99182.53
2023-01-10T09:18:29.629Z,99193.81
2023-01-10T09:21:32.392Z,99198.56
2023-01-10T09:24:39.640Z,99191.25
2023-01-10T09:27:43.616Z,99198.16
2023-01-10T09:30:46.377Z,99206.22
2023-01-10T09:33:49.814Z,99207.44
2023-01-10T09:36:52.404Z,99223.75
2023-01-10T09:39:55.042Z,99218.97
2023-01-10T09:43:07.084Z,99228.19
2023-01-10T09:46:12.755Z,99217.50
2023-01-10T09:49:21.724Z,99228.63
2023-01-10T09:52:28.140Z,99232.84
2023-01-10T09:55:33.094Z,99243.50
2023-01-10T09:58:38.677Z,99245.56
2023-01-10T10:01:41.355Z,99248.56
2023-01-10T10:04:47.078Z,99254.66
2023-01-10T10:07:54.540Z,99256.50
2023-01-10T10:11:04.407Z,99242.16
2023-01-10T10:14:16.376Z,99236.19
2023-01-10T10:17:38.785Z,99234.25
2023-01-10T10:20:52.802Z,99230.88
2023-01-10T10:24:09.025Z,99230.69
2023-01-10T10:27:19.203Z,99230.59
2023-01-10T10:30:35.867Z,99228.38
2023-01-10T10:33:54.241Z,99234.13
2023-01-10T10:36:59.140Z,99237.00
2023-01-10T10:40:03.982Z,99235.09
2023-01-10T10:43:15.648Z,99238.88
2023-01-10T10:46:20.218Z,99231.34
2023-01-10T10:49:29.432Z,99229.53
2023-01-10T10:52:35.693Z,99223.66
2023-01-10T10:55:39.011Z,99225.16
2023-01-10T10:58:44.406Z,99222.59
2023-01-10T11:01:49.843Z,99222.59
2023-01-10T11:04:54.565Z,99228.38
2023-01-10T11:08:02.832Z,99232.16
2023-01-10T11:11:08.749Z,99229.88
2023-01-10T11:14:11.571Z,99237.50
2023-01-10T11:17:24.130Z,99244.41
2023-01-10T11:20:26.975Z,99253.31
2023-01-10T11:23:38.599Z,99245.88
2023-01-10T11:26:41.715Z,99247.03
2023-01-10T11:29:46.622Z,99249.53
2023-01-10T11:32:53.809Z,99255.16
2023-01-10T11:36:00.801Z,99243.63
2023-01-10T11:39:06.122Z,99243.44
2023-01-10T11:42:29.881Z,99240.69
2023-01-10T11:45:33.535Z,99231.94
2023-01-10T11:49:04.846Z,99236.66
2023-01-10T11:52:16.760Z,99235.78
2023-01-10T11:55:21.045Z,99225.84
2023-01-10T11:58:23.749Z,99221.25
2023-01-10T12:01:29.112Z,99219.63
2023-01-10T12:04:36.045Z,99219.84
2023-01-10T12:07:57.184Z,99224.16
2023-01-10T12:11:03.010Z,99226.03
2023-01-10T12:14:19.830Z,99229.34
2023-01-10T12:17:25.211Z,99229.47
2023-01-10T12:20:31.318Z,99215.38
2023-01-10T12:23:40.557Z,99209.72
2023-01-10T12:26:44.029Z,99192.06
2023-01-10T12:29:53.433Z,99194.34
2023-01-10T12:32:58.058Z,99182.88
2023-01-10T12:36:10.843Z,99191.81
2023-01-10T12:39:17.380Z,99169.28
2023-01-10T12:42:46.088Z,99177.19
2023-01-10T12:45:52.574Z,99168.22
2023-01-10T12:48:58.509Z,99175.88
2023-01-10T12:52:06.584Z,99173.84
2023-01-10T12:55:14.570Z,99172.84
2023-01-10T12:58:22.189Z,99174.47
2023-01-10T13:01:29.992Z,99169.13
2023-01-10T13:04:38.228Z,99169.75
2023-01-10T13:07:43.343Z,99175.81
2023-01-10T13:10:48.067Z,99167.91
2023-01-10T13:13:54.828Z,99166.69
2023-01-10T13:17:04.788Z,99166.94
2023-01-10T13:20:29.536Z,99170.78
2023-01-10T13:23:35.511Z,99166.53
2023-01-10T13:26:51.026Z,99169.41
2023-01-10T13:29:54.655Z,99170.38
2023-01-10T13:32:59.770Z,99165.16
2023-01-10T13:36:10.605Z,99172.91
2023-01-10T13:39:24.968Z,99165.09
2023-01-10T13:42:49.876Z,99159.47
2023-01-10T13:46:37.452Z,99166.44
2023-01-10T13:49:43.944Z,99173.63
2023-01-10T13:52:46.452Z,99169.91
2023-01-10T13:55:57.091Z,99166.97
2023-01-10T13:59:17.280Z,99180.50
2023-01-10T14:02:31.629Z,99177.59
2023-01-10T14:05:34.312Z,99174.06
2023-01-10T14:08:37.100Z,99177.56
2023-01-10T14:11:51.786Z,99170.00
2023-01-10T14:14:57.268Z,99174.56
2023-01-10T14:18:02.471Z,99179.47
2023-01-10T14:21:07.064Z,99182.59
2023-01-10T14:24:25.519Z,99186.81
2023-01-10T14:27:35.996Z,99179.75
2023-01-10T14:30:41.243Z,99183.44
2023-01-10T14:33:44.909Z,99177.94
2023-01-10T14:36:50.372Z,99177.81
2023-01-10T14:39:56.138Z,99168.69
2023-01-10T14:43:03.880Z,99168.22
2023-01-10T14:46:11.730Z,99170.34
2023-01-10T14:49:23.595Z,99169.72
2023-01-10T14:52:27.703Z,99166.25
2023-01-10T14:55:31.620Z,99156.31
2023-01-10T14:58:35.991Z,99151.22
2023-01-10T15:01:39.299Z,99145.56
2023-01-10T15:04:51.589Z,99146.88
2023-01-10T15:07:54.904Z,99148.47
2023-01-10T15:11:01.315Z,99132.88
2023-01-10T15:14:10.977Z,99127.25
2023-01-10T15:17:20.172Z,99123.34
2023-01-10T15:20:23.756Z,99110.97
2023-01-10T15:23:27.494Z,99111.66
2023-01-10T15:26:33.406Z,99113.34
2023-01-10T15:29:44.574Z,99103.63
2023-01-10T15:32:50.626Z,99103.72
2023-01-10T15:35:53.380Z,99111.34
2023-01-10T15:38:57.065Z,99107.06
2023-01-10T15:42:02.473Z,99101.72
2023-01-10T15:45:29.814Z,99097.22
2023-01-10T15:48:34.170Z,99087.78
2023-01-10T15:51:39.389Z,99074.56
2023-01-10T15:54:44.523Z,99084.75
2023-01-10T15:57:47.588Z,99084.03
2023-01-10T16:00:53.783Z,99081.28
2023-01-10T16:04:01.349Z,99085.66
2023-01-10T16:07:09.382Z,99092.22
2023-01-10T16:10:19.108Z,99077.88
2023-01-10T16:13:33.194Z,99084.75
2023-01-10T16:16:37.551Z,99091.56
2023-01-10T16:19:40.585Z,99088.59
2023-01-10T16:22:44.386Z,99080.81
2023-01-10T16:25:49.232Z,99075.50
2023-01-10T16:28:51.914Z,99069.56
2023-01-10T16:31:56.536Z,99066.00
2023-01-10T16:35:01.429Z,99063.25
2023-01-10T16:38:04.594Z,99067.81
2023-01-10T16:41:21.486Z,99059.66
2023-01-10T16:44:24.366Z,99059.81
2023-01-10T16:47:28.400Z,99057.78
2023-01-10T16:50:31.337Z,99053.41
2023-01-10T16:53:34.410Z,99061.38
2023-01-10T16:56:37.735Z,99054.91
2023-01-10T16:59:40.727Z,99050.38
2023-01-10T17:02:45.117Z,99053.00
2023-01-10T17:05:48.160Z,99043.19
2023-01-10T17:08:51.121Z,99043.69
2023-01-10T17:11:57.648Z,99042.41
2023-01-10T17:15:00.403Z,99035.53
2023-01-10T17:18:04.814Z,99032.22
2023-01-10T17:21:12.511Z,99027.91
2023-01-10T17:24:15.136Z,99039.66
2023-01-10T17:27:17.971Z,99037.19
2023-01-10T17:30:20.857Z,99036.94
2023-01-10T17:33:25.403Z,99029.41
2023-01-10T17:36:30.012Z,99015.28
2023-01-10T17:39:32.957Z,99014.44
2023-01-10T17:42:36.031Z,99014.09
2023-01-10T17:45:40.151Z,99017.59
2023-01-10T17:48:44.323Z,99018.09
2023-01-10T17:51:47.386Z,99014.38
2023-01-10T17:54:49.942Z,99006.97
2023-01-10T17:57:52.528Z,99001.00
2023-01-10T18:00:55.771Z,99000.97
2023-01-10T18:04:00.089Z,99001.56
2023-01-10T18:07:04.612Z,99004.09
2023-01-10T18:10:08.917Z,98998.34
2023-01-10T18:13:12.453Z,99005.38
2023-01-10T18:16:15.189Z,99011.09
2023-01-10T18:19:19.646Z,99001.88
2023-01-10T18:22:39.745Z,99000.81
2023-01-10T18:25:42.961Z,98985.28
2023-01-10T18:28:45.956Z,98992.53
2023-01-10T18:31:49.217Z,98991.63
2023-01-10T18:34:53.284Z,98984.88
2023-01-10T18:37:56.046Z,98977.81
2023-01-10T18:40:58.601Z,98975.91
2023-01-10T18:44:01.718Z,98978.63
2023-01-10T18:47:04.556Z,98968.53
2023-01-10T18:50:09.473Z,98959.47
2023-01-10T18:53:12.230Z,98951.53
2023-01-10T18:56:17.370Z,98949.91
2023-01-10T18:59:20.343Z,98951.03
2023-01-10T19:02:23.397Z,98956.09
2023-01-10T19:05:27.749Z,98951.94
2023-01-10T19:08:30.531Z,98960.38
2023-01-10T19:11:33.520Z,98940.81
2023-01-10T19:14:36.186Z,98929.53
2023-01-10T19:17:38.894Z,98925.50
2023-01-10T19:20:43.013Z,98924.09
2023-01-10T19:23:46.985Z,98919.03
2023-01-10T19:26:50.268Z,98919.94
2023-01-10T19:29:53.110Z,98931.03
2023-01-10T19:32:57.513Z,98925.09
2023-01-10T19:36:03.558Z,98920.97
2023-01-10T19:39:07.565Z,98922.38
2023-01-10T19:42:10.536Z,98912.56
2023-01-10T19:45:13.784Z,98912.03
2023-01-10T19:48:17.114Z,98923.78
2023-01-10T19:51:21.889Z,98927.22
2023-01-10T19:54:25.482Z,98919.59
2023-01-10T19:57:28.251Z,98915.41
2023-01-10T20:00:31.197Z,98908.81
2023-01-10T20:03:34.036Z,98914.75
2023-01-10T20:06:40.494Z,98924.19
2023-01-10T20:09:43.912Z,98917.13
2023-01-10T20:12:46.902Z,98916.41
2023-01-10T20:15:49.828Z,98913.16
2023-01-10T20:18:53.160Z,98909.06
2023-01-10T20:21:57.673Z,98896.22
2023-01-10T20:25:00.870Z,98903.75
2023-01-10T20:28:03.577Z,98908.81
2023-01-10T20:31:08.140Z,98903.75
2023-01-10T20:34:11.176Z,98898.41
2023-01-10T20:37:15.272Z,98898.94
2023-01-10T20:40:18.237Z,98900.38
2023-01-10T20:43:21.108Z,98898.84
2023-01-10T20:46:26.259Z,98895.63
2023-01-10T20:49:29.280Z,98895.56
2023-01-10T20:52:33.310Z,98897.09
2023-01-10T20:55:36.288Z,98888.50
2023-01-10T20:58:40.340Z,98880.06
2023-01-10T21:01:42.941Z,98879.47
2023-01-10T21:04:45.656Z,98875.28
2023-01-10T21:07:50.079Z,98883.38
2023-01-10T21:10:53.721Z,98877.69
2023-01-10T21:13:56.770Z,98863.31
2023-01-10T21:16:59.522Z,98872.19
2023-01-10T21:20:02.544Z,98869.41
2023-01-10T21:23:06.652Z,98862.69
2023-01-10T21:26:12.200Z,98868.06
2023-01-10T21:29:15.248Z,98866.53
2023-01-10T21:32:17.955Z,98863.81
2023-01-10T21:35:20.560Z,98864.63
2023-01-10T21:38:25.260Z,98856.25
2023-01-10T21:41:45.367Z,98856.47
2023-01-10T21:44:48.064Z,98858.19
2023-01-10T21:47:51.699Z,98848.50
2023-01-10T21:50:54.646Z,98849.81
2023-01-10T21:53:59.217Z,98846.03
2023-01-10T22:00:30.693Z,98843.47
2023-01-10T22:03:33.448Z,98842.88
2023-01-10T22:06:36.322Z,98842.44
2023-01-10T22:09:40.784Z,98845.53
2023-01-10T22:12:43.429Z,98843.31
2023-01-10T22:15:46.190Z,98846.41
2023-01-10T22:18:49.025Z,98846.84
2023-01-10T22:21:51.954Z,98838.44
2023-01-10T22:24:56.121Z,98842.22
2023-01-10T22:27:58.877Z,98832.69
2023-01-10T22:31:02.387Z,98829.09
2023-01-10T22:34:05.259Z,98825.28
2023-01-10T22:37:08.051Z,98837.41
2023-01-10T22:40:13.256Z,98824.53
2023-01-10T22:43:15.889Z,98814.06
2023-01-10T22:46:18.453Z,98806.22
2023-01-10T22:49:21.837Z,98815.06
2023-01-10T22:52:24.597Z,98801.22
2023-01-10T22:55:28.795Z,98804.72
2023-01-10T22:58:31.774Z,98812.28
2023-01-10T23:01:35.109Z,98805.69
2023-01-10T23:04:37.799Z,98805.38
2023-01-10T23:07:40.584Z,98800.47
2023-01-10T23:10:46.797Z,98790.19
2023-01-10T23:13:50.382Z,98789.91
2023-01-10T23:16:53.103Z,98784.63
2023-01-10T23:19:55.633Z,98777.84
2023-01-10T23:22:58.456Z,98764.13
2023-01-10T23:26:05.339Z,98753.50
2023-01-10T23:29:08.095Z,98766.53
2023-01-10T23:32:10.735Z,98756.97
2023-01-10T23:35:13.312Z,98757.81
2023-01-10T23:38:16.080Z,98739.03
2023-01-10T23:41:21.147Z,98743.94
2023-01-10T23:44:24.804Z,98746.78
2023-01-10T23:47:27.562Z,98743.94
2023-01-10T23:50:30.303Z,98748.41
2023-01-10T23:53:32.929Z,98746.34
2023-01-10T23:56:36.994Z,98741.97
2023-01-10T23:59:39.905Z,98731.50
